Weather at Parrsboro Airport [CLOSED]

Public forecast

Using degrees Celsius for public forecast. Weather courtesy of forecast.io.

Closest aviation weather report (METAR) to Parrsboro Airport

Closest report is CFB Greenwood, 35.8 nm (66.3 km) SW.

2023/03/31 22:00 (retrieved 28 minutes ago)

CYZX 312200Z 23004KT 15SM BKN250 03/M07 A3018 RMK CI6 DENSITY ALT -1557FT SLP220

Closest aviation forecast (TAF) to Parrsboro Airport

Closest forecast is CFB Greenwood, 35.8 nm (66.3 km) SW.

2023/03/31 18:42 (retrieved 4 hours ago)

TAF TAF CYZX 311740Z 3118/0118 30008G18KT P6SM SKC BECMG 3118/3120 28008KT FEW025 FM312300 24005KT P6SM BKN160 FM010200 22005KT P6SM BKN100 BKN200 FM010500 19005KT P6SM OVC050 FM010900 17005KT 4SM -SN OVC015 TEMPO 0109/0114 6SM -SN SCT015 OVC025 BECMG 0111/0113 16008G18KT FM011400 16015G25KT 5SM -RA -DZ BR OVC020 RMK NXT FCST BY 010000Z